GMML

Hassan I Airport

El Aaiún, Western Sahara
METAR GMML 241200Z 25018G28KT 6000 BKN016 SCT026 21/14 Q1007 NOSIG
Observed Flight Rules
Feb-24 @ 12:00 UTC (21 minutes ago) Marginal Visual Flight Rules
Wind Visibility Clouds
250° at 18 knots
 Gusting to 28 knots
6,003 meters
  • Broken at 1,600' AGL
  • Scattered at 2,600' AGL
Temperatures Readings
Current 21°C / 70°F
Dewpoint 14°C / 57°F
Humidity 64%
Altimeter 29.73" Hg
Pressure 1007 hPa
Elevation 6
METAR GMML 241200Z 25018G28KT 6000 BKN016 SCT026 21/14 Q1007 NOSIG
Observed Flight Rules
Feb-24 @ 12:00 UTC
(21 minutes ago)
MVFR
Wind Visibility
250° at 18 knots
 Gusting to 28 knots
6,003 meters
Clouds
  • Broken at 1,600' AGL
  • Scattered at 2,600' AGL
Temperature Dewpoint
21°C / 70°F 14°C / 57°F
Humidity Altimeter Pressure
64% 29.73" Hg 1007 hPa